createdAt,value
2019-04-05T00:00:59.696Z,0.00
2019-04-05T00:01:59.484Z,0.00
2019-04-05T00:02:59.476Z,0.00
2019-04-05T00:03:59.468Z,0.00
2019-04-05T00:04:59.469Z,0.00
2019-04-05T00:05:59.455Z,0.00
2019-04-05T00:06:59.452Z,0.00
2019-04-05T00:07:59.444Z,0.00
2019-04-05T00:08:59.429Z,0.00
2019-04-05T00:09:59.427Z,0.00
2019-04-05T00:10:59.416Z,0.00
2019-04-05T00:11:59.410Z,0.00
2019-04-05T00:12:59.400Z,0.00
2019-04-05T00:13:59.390Z,0.00
2019-04-05T00:14:59.389Z,0.00
2019-04-05T00:15:59.381Z,0.00
2019-04-05T00:16:59.374Z,0.00
2019-04-05T00:17:59.360Z,0.00
2019-04-05T00:18:59.355Z,0.00
2019-04-05T00:19:59.351Z,0.00
2019-04-05T00:20:59.339Z,0.00
2019-04-05T00:21:59.337Z,0.00
2019-04-05T00:22:59.321Z,0.00
2019-04-05T00:23:59.317Z,0.00
2019-04-05T00:24:59.310Z,0.00
2019-04-05T00:25:59.304Z,0.00
2019-04-05T00:26:59.292Z,0.00
2019-04-05T00:27:59.284Z,0.00
2019-04-05T00:28:59.279Z,0.00
2019-04-05T00:29:59.272Z,0.00
2019-04-05T00:30:59.257Z,0.00
2019-04-05T00:31:59.252Z,0.00
2019-04-05T00:32:59.447Z,0.00
2019-04-05T00:33:59.241Z,0.00
2019-04-05T00:34:59.231Z,0.00
2019-04-05T00:35:59.222Z,0.00
2019-04-05T00:36:59.210Z,0.00
2019-04-05T00:37:59.203Z,0.00
2019-04-05T00:38:59.200Z,0.00
2019-04-05T00:39:59.194Z,0.00
2019-04-05T00:40:59.184Z,0.00
2019-04-05T00:41:59.177Z,0.00
2019-04-05T00:42:59.168Z,0.00
2019-04-05T00:43:59.162Z,0.00
2019-04-05T00:44:59.148Z,0.00
2019-04-05T00:45:59.149Z,0.00
2019-04-05T00:46:59.136Z,0.00
2019-04-05T00:47:59.120Z,0.00
2019-04-05T00:50:32.318Z,0.00
2019-04-05T00:50:59.103Z,0.00
2019-04-05T00:51:59.090Z,0.00
2019-04-05T00:52:59.084Z,0.00
2019-04-05T00:53:59.083Z,0.00
2019-04-05T00:54:59.072Z,0.00
2019-04-05T00:55:59.060Z,0.00
2019-04-05T00:56:59.056Z,0.00
2019-04-05T00:57:59.044Z,0.00
2019-04-05T00:58:59.034Z,0.00
2019-04-05T00:59:59.031Z,0.00
2019-04-05T01:00:59.025Z,0.00
2019-04-05T01:01:59.018Z,0.00
2019-04-05T01:02:59.009Z,0.00
2019-04-05T01:03:58.998Z,0.00
2019-04-05T01:04:58.989Z,0.00
2019-04-05T01:05:58.986Z,0.00
2019-04-05T01:06:58.975Z,0.00
2019-04-05T01:07:58.966Z,0.00
2019-04-05T01:08:58.960Z,0.00
2019-04-05T01:09:58.947Z,0.00
2019-04-05T01:10:58.941Z,0.00
2019-04-05T01:11:58.937Z,0.00
2019-04-05T01:12:58.927Z,0.00
2019-04-05T01:13:58.914Z,0.00
2019-04-05T01:14:58.913Z,0.00
2019-04-05T01:15:58.900Z,0.00
2019-04-05T01:16:58.896Z,0.00
2019-04-05T01:17:58.885Z,0.00
2019-04-05T01:18:58.878Z,0.00
2019-04-05T01:19:58.866Z,0.00
2019-04-05T01:20:58.868Z,0.00
2019-04-05T01:21:58.854Z,0.00
2019-04-05T01:22:58.843Z,0.00
2019-04-05T01:23:58.835Z,0.00
2019-04-05T01:24:58.827Z,0.00
2019-04-05T01:25:58.821Z,0.00
2019-04-05T01:26:58.814Z,0.00
2019-04-05T01:27:58.812Z,0.00
2019-04-05T01:28:58.797Z,0.00
2019-04-05T01:29:58.791Z,0.00
2019-04-05T01:30:58.788Z,0.00
2019-04-05T01:31:58.776Z,0.00
2019-04-05T01:32:58.771Z,0.00
2019-04-05T01:33:58.767Z,0.00
2019-04-05T01:34:58.748Z,0.00
2019-04-05T01:35:58.742Z,0.00
2019-04-05T01:36:58.734Z,0.00
2019-04-05T01:37:58.728Z,0.00
2019-04-05T01:38:58.721Z,0.00
2019-04-05T01:39:58.710Z,0.00
2019-04-05T01:40:58.705Z,0.00
2019-04-05T01:41:58.698Z,0.00
2019-04-05T01:42:58.692Z,0.00
2019-04-05T01:43:58.685Z,0.00
2019-04-05T01:44:58.679Z,0.00
2019-04-05T01:45:58.668Z,0.00
2019-04-05T01:46:58.662Z,0.00
2019-04-05T01:47:58.654Z,0.00
2019-04-05T01:48:58.646Z,0.00
2019-04-05T01:49:58.633Z,0.00
2019-04-05T01:50:58.631Z,0.00
2019-04-05T01:51:58.621Z,0.00
2019-04-05T01:52:58.609Z,0.00
2019-04-05T01:53:58.608Z,0.00
2019-04-05T01:54:58.601Z,0.00
2019-04-05T01:55:58.593Z,0.00
2019-04-05T01:56:58.582Z,0.00
2019-04-05T01:57:58.579Z,0.00
2019-04-05T01:58:58.562Z,0.00
2019-04-05T01:59:58.565Z,0.00
2019-04-05T02:00:58.556Z,0.00
2019-04-05T02:01:58.542Z,0.00
2019-04-05T02:02:58.532Z,0.00
2019-04-05T02:03:58.529Z,0.00
2019-04-05T02:04:58.519Z,0.00
2019-04-05T02:05:58.520Z,0.00
2019-04-05T02:06:58.505Z,0.00
2019-04-05T02:07:58.496Z,0.00
2019-04-05T02:08:58.485Z,0.00
2019-04-05T02:09:58.477Z,0.00
2019-04-05T02:10:58.472Z,0.00
2019-04-05T02:11:58.465Z,0.00
2019-04-05T02:12:58.456Z,0.00
2019-04-05T02:13:58.447Z,0.00
2019-04-05T02:16:06.322Z,0.00
2019-04-05T02:16:58.425Z,0.00
2019-04-05T02:17:58.425Z,0.00
2019-04-05T02:18:58.414Z,0.00
2019-04-05T02:19:58.406Z,0.00
2019-04-05T02:20:58.398Z,0.00
2019-04-05T02:21:58.391Z,0.00
2019-04-05T02:22:58.381Z,0.00
2019-04-05T02:23:58.372Z,0.00
2019-04-05T02:24:58.362Z,0.00
2019-04-05T02:25:58.362Z,0.00
2019-04-05T02:26:58.348Z,0.00
2019-04-05T02:27:58.343Z,0.00
2019-04-05T02:28:58.333Z,0.00
2019-04-05T02:29:58.324Z,0.00
2019-04-05T02:30:58.321Z,0.00
2019-04-05T02:31:58.310Z,0.00
2019-04-05T02:32:58.299Z,0.00
2019-04-05T02:33:58.305Z,0.00
2019-04-05T02:34:58.287Z,0.00
2019-04-05T02:35:58.293Z,0.00
2019-04-05T02:36:58.270Z,0.00
2019-04-05T02:37:58.263Z,0.00
2019-04-05T02:38:58.258Z,0.00
2019-04-05T02:39:58.246Z,0.00
2019-04-05T02:40:59.109Z,0.00
2019-04-05T02:41:58.235Z,0.00
2019-04-05T02:42:58.229Z,0.00
2019-04-05T02:43:58.217Z,0.00
2019-04-05T02:44:58.212Z,0.00
2019-04-05T02:45:58.205Z,0.00
2019-04-05T02:46:58.221Z,0.00
2019-04-05T02:47:58.191Z,0.00
2019-04-05T02:48:58.177Z,0.00
2019-04-05T02:49:58.378Z,0.00
2019-04-05T02:50:58.163Z,0.00
2019-04-05T02:51:58.159Z,0.00
2019-04-05T02:52:58.151Z,0.00
2019-04-05T02:53:58.141Z,0.00
2019-04-05T02:54:58.132Z,0.00
2019-04-05T02:55:58.129Z,0.00
2019-04-05T02:56:58.115Z,0.00
2019-04-05T02:57:58.107Z,0.00
2019-04-05T02:58:58.104Z,0.00
2019-04-05T02:59:58.097Z,0.00
2019-04-05T03:00:58.088Z,0.00
2019-04-05T03:01:58.091Z,0.00
2019-04-05T03:02:58.076Z,0.00
2019-04-05T03:03:58.084Z,0.00
2019-04-05T03:04:58.061Z,0.00
2019-04-05T03:05:58.048Z,0.00
2019-04-05T03:06:58.052Z,0.00
2019-04-05T03:07:58.037Z,0.00
2019-04-05T03:08:58.027Z,0.00
2019-04-05T03:09:58.020Z,0.00
2019-04-05T03:10:58.011Z,0.00
2019-04-05T03:11:58.003Z,0.00
2019-04-05T03:12:57.997Z,0.00
2019-04-05T03:13:57.985Z,0.00
2019-04-05T03:14:57.986Z,0.00
2019-04-05T03:15:57.981Z,0.00
2019-04-05T03:16:57.961Z,0.00
2019-04-05T03:17:57.962Z,0.00
2019-04-05T03:19:57.938Z,0.00
2019-04-05T03:20:57.934Z,0.00
2019-04-05T03:21:57.926Z,0.00
2019-04-05T03:22:57.913Z,0.00
2019-04-05T03:23:57.912Z,0.00
2019-04-05T03:24:57.903Z,0.00
2019-04-05T03:25:57.906Z,0.00
2019-04-05T03:26:57.884Z,0.00
2019-04-05T03:27:57.880Z,0.00
2019-04-05T03:28:57.877Z,0.00
2019-04-05T03:29:57.867Z,0.00
2019-04-05T03:30:57.853Z,0.00
2019-04-05T03:31:57.845Z,0.00
2019-04-05T03:33:57.874Z,0.00
2019-04-05T03:34:57.829Z,0.00
2019-04-05T03:35:57.816Z,0.00
2019-04-05T03:36:57.808Z,0.00
2019-04-05T03:37:57.807Z,0.00
2019-04-05T03:38:57.791Z,0.00
2019-04-05T03:39:57.790Z,0.00
2019-04-05T03:40:57.784Z,0.00
2019-04-05T03:41:57.773Z,0.00
2019-04-05T03:42:57.765Z,0.00
2019-04-05T03:43:57.756Z,0.00
2019-04-05T03:44:57.748Z,0.00
2019-04-05T03:45:57.742Z,0.00
2019-04-05T03:46:58.086Z,0.00
2019-04-05T03:47:57.725Z,0.00
2019-04-05T03:48:57.719Z,0.00
2019-04-05T03:49:57.713Z,0.00
2019-04-05T03:50:57.701Z,0.00
2019-04-05T03:51:57.694Z,0.00
2019-04-05T03:52:57.686Z,0.00
2019-04-05T03:53:57.677Z,0.00
2019-04-05T03:54:57.674Z,0.00
2019-04-05T03:55:57.664Z,0.00
2019-04-05T03:56:57.660Z,0.00
2019-04-05T03:57:57.648Z,0.00
2019-04-05T03:58:57.651Z,0.00
2019-04-05T03:59:57.635Z,0.00
2019-04-05T04:00:57.625Z,0.00
2019-04-05T04:01:57.681Z,0.00
2019-04-05T04:02:57.609Z,0.00
2019-04-05T04:03:57.607Z,0.00
2019-04-05T04:04:57.593Z,0.00
2019-04-05T04:05:57.597Z,0.00
2019-04-05T04:06:57.587Z,0.00
2019-04-05T04:07:57.573Z,0.00
2019-04-05T04:08:57.562Z,0.00
2019-04-05T04:09:57.567Z,0.00
2019-04-05T04:10:57.552Z,0.00
2019-04-05T04:11:57.545Z,0.00
2019-04-05T04:12:57.536Z,0.00
2019-04-05T04:13:57.535Z,0.00
2019-04-05T04:14:57.524Z,0.00
2019-04-05T04:15:57.524Z,0.00
2019-04-05T04:17:11.454Z,0.00
2019-04-05T04:17:57.507Z,0.00
2019-04-05T04:18:57.492Z,0.00
2019-04-05T04:19:57.479Z,0.00
2019-04-05T04:21:57.465Z,0.00
2019-04-05T04:22:57.462Z,0.00
2019-04-05T04:23:57.453Z,0.00
2019-04-05T04:24:57.443Z,0.00
2019-04-05T04:25:57.437Z,0.00
2019-04-05T04:26:57.432Z,0.00
2019-04-05T04:27:57.420Z,0.00
2019-04-05T04:28:57.419Z,0.00
2019-04-05T04:30:00.328Z,0.00
2019-04-05T04:30:57.399Z,0.00
2019-04-05T04:31:57.387Z,0.00
2019-04-05T04:32:57.382Z,0.00
2019-04-05T04:33:57.390Z,0.00
2019-04-05T04:34:57.373Z,0.00
2019-04-05T04:35:57.362Z,4.00
2019-04-05T04:36:57.355Z,4.00
2019-04-05T04:37:57.345Z,4.00
2019-04-05T04:38:57.338Z,4.00
2019-04-05T04:39:57.357Z,4.00
2019-04-05T04:40:57.321Z,4.00
2019-04-05T04:41:57.314Z,4.00
2019-04-05T04:42:57.313Z,8.00
2019-04-05T04:43:57.302Z,8.00
2019-04-05T04:45:11.032Z,8.00
2019-04-05T04:45:57.289Z,12.00
2019-04-05T04:46:57.274Z,12.00
2019-04-05T04:47:57.280Z,12.00
2019-04-05T04:48:57.267Z,16.00
2019-04-05T04:49:57.260Z,20.00
2019-04-05T04:50:57.250Z,20.00
2019-04-05T04:51:57.238Z,24.00
2019-04-05T04:52:57.237Z,28.00
2019-04-05T04:53:57.228Z,32.00
2019-04-05T04:54:57.222Z,36.00
2019-04-05T04:55:57.222Z,44.00
2019-04-05T04:56:57.202Z,44.00
2019-04-05T04:57:57.200Z,52.00
2019-04-05T04:58:57.192Z,56.00
2019-04-05T04:59:57.185Z,60.00
2019-04-05T05:00:57.178Z,64.00
2019-04-05T05:01:57.167Z,68.00
2019-04-05T05:02:57.163Z,80.00
2019-04-05T05:03:57.152Z,84.00
2019-04-05T05:04:57.146Z,92.00
2019-04-05T05:05:57.140Z,104.00
2019-04-05T05:06:57.126Z,112.00
2019-04-05T05:07:57.128Z,116.00
2019-04-05T05:08:57.112Z,116.00
2019-04-05T05:09:57.106Z,120.00
2019-04-05T05:10:57.099Z,124.00
2019-04-05T05:11:57.093Z,132.00
2019-04-05T05:12:57.087Z,144.00
2019-04-05T05:13:57.078Z,164.00
2019-04-05T05:14:57.099Z,184.00
2019-04-05T05:15:57.061Z,192.00
2019-04-05T05:16:57.055Z,208.00
2019-04-05T05:17:58.766Z,220.00
2019-04-05T05:18:57.042Z,228.00
2019-04-05T05:19:57.028Z,236.00
2019-04-05T05:20:57.020Z,244.00
2019-04-05T05:21:57.021Z,252.00
2019-04-05T05:22:57.011Z,264.00
2019-04-05T05:23:57.001Z,272.00
2019-04-05T05:24:57.000Z,276.00
2019-04-05T05:25:56.991Z,276.00
2019-04-05T05:26:56.982Z,272.00
2019-04-05T05:27:56.972Z,272.00
2019-04-05T05:28:56.965Z,276.00
2019-04-05T05:29:57.157Z,284.00
2019-04-05T05:30:56.948Z,300.00
2019-04-05T05:31:56.941Z,320.00
2019-04-05T05:32:56.937Z,348.00
2019-04-05T05:33:56.927Z,376.00
2019-04-05T05:35:02.198Z,400.00
2019-04-05T05:35:56.915Z,424.00
2019-04-05T05:36:56.902Z,444.00
2019-04-05T05:37:56.893Z,468.00
2019-04-05T05:38:56.886Z,488.00
2019-04-05T05:39:56.882Z,512.00
2019-04-05T05:40:56.879Z,532.00
2019-04-05T05:41:56.864Z,556.00
2019-04-05T05:42:56.857Z,588.00
2019-04-05T05:43:56.848Z,620.00
2019-04-05T05:44:56.845Z,664.00
2019-04-05T05:45:56.838Z,716.00
2019-04-05T05:46:56.826Z,776.00
2019-04-05T05:47:56.825Z,836.00
2019-04-05T05:48:56.814Z,892.00
2019-04-05T05:49:56.805Z,952.00
2019-04-05T05:50:56.799Z,1004.00
2019-04-05T05:51:56.796Z,1060.00
2019-04-05T05:52:56.788Z,1108.00
2019-04-05T05:53:56.780Z,1140.00
2019-04-05T05:54:56.771Z,1148.00
2019-04-05T05:55:56.762Z,1148.00
2019-04-05T05:56:56.755Z,1124.00
2019-04-05T05:57:58.735Z,1064.00
2019-04-05T05:58:59.554Z,1040.00
2019-04-05T05:59:58.480Z,1064.00
2019-04-05T06:00:56.726Z,1072.00
2019-04-05T06:01:56.715Z,1080.00
2019-04-05T06:02:56.711Z,1068.00
2019-04-05T06:03:56.710Z,1052.00
2019-04-05T06:04:56.702Z,1068.00
2019-04-05T06:06:56.679Z,1048.00
2019-04-05T06:07:58.708Z,1064.00
2019-04-05T06:08:56.671Z,1124.00
2019-04-05T06:09:56.658Z,1196.00
2019-04-05T06:10:56.656Z,1304.00
2019-04-05T06:11:56.649Z,1460.00
2019-04-05T06:12:58.701Z,1700.00
2019-04-05T06:13:56.627Z,1912.00
2019-04-05T06:14:56.627Z,2088.00
2019-04-05T06:15:56.620Z,2192.00
2019-04-05T06:16:56.606Z,2320.00
2019-04-05T06:18:04.621Z,2352.00
2019-04-05T06:18:56.591Z,2380.00
2019-04-05T06:19:56.586Z,2484.00
2019-04-05T06:20:56.583Z,2656.00
2019-04-05T06:21:56.575Z,2696.00
2019-04-05T06:22:56.566Z,2860.00
2019-04-05T06:23:56.558Z,2988.00
2019-04-05T06:24:56.551Z,3044.00
2019-04-05T06:25:56.545Z,3144.00
2019-04-05T06:26:56.539Z,3216.00
2019-04-05T06:27:59.646Z,3244.00
2019-04-05T06:28:56.523Z,3332.00
2019-04-05T06:29:56.515Z,3456.00
2019-04-05T06:30:56.507Z,3540.00
2019-04-05T06:31:56.505Z,3592.00
2019-04-05T06:32:56.497Z,3640.00
2019-04-05T06:33:56.492Z,3728.00
2019-04-05T06:34:56.482Z,3812.00
2019-04-05T06:35:56.473Z,3832.00
2019-04-05T06:36:56.470Z,3892.00
2019-04-05T06:37:56.468Z,4064.00
2019-04-05T06:38:56.452Z,4132.00
2019-04-05T06:39:56.448Z,4160.00
2019-04-05T06:40:56.438Z,4176.00
2019-04-05T06:41:56.436Z,4240.00
2019-04-05T06:42:56.430Z,4360.00
2019-04-05T06:43:56.422Z,4456.00
2019-04-05T06:44:56.409Z,4596.00
2019-04-05T06:45:56.545Z,4744.00
2019-04-05T06:46:56.401Z,4780.00
2019-04-05T06:47:56.391Z,4672.00
2019-04-05T06:48:56.388Z,4360.00
2019-04-05T06:49:56.383Z,4416.00
2019-04-05T06:50:56.374Z,4176.00
2019-04-05T06:51:56.366Z,4040.00
2019-04-05T06:52:56.357Z,3912.00
2019-04-05T06:53:56.355Z,3844.00
2019-04-05T06:54:56.340Z,3980.00
2019-04-05T06:55:59.441Z,4084.00
2019-04-05T06:56:56.334Z,4316.00
2019-04-05T06:57:56.337Z,4476.00
2019-04-05T06:58:56.323Z,4440.00
2019-04-05T06:59:56.314Z,4340.00
2019-04-05T07:00:57.559Z,4860.00
2019-04-05T07:01:56.498Z,5356.00
2019-04-05T07:02:56.287Z,5004.00
2019-04-05T07:03:56.288Z,5252.00
2019-04-05T07:04:56.279Z,5168.00
2019-04-05T07:05:56.273Z,4492.00
2019-04-05T07:06:56.268Z,4552.00
2019-04-05T07:07:56.260Z,5112.00
2019-04-05T07:08:56.251Z,5036.00
2019-04-05T07:09:56.245Z,4668.00
2019-04-05T07:10:56.240Z,4008.00
2019-04-05T07:11:56.235Z,3376.00
2019-04-05T07:12:56.360Z,3672.00
2019-04-05T07:13:56.218Z,4264.00
2019-04-05T07:14:56.496Z,4484.00
2019-04-05T07:15:56.207Z,4256.00
2019-04-05T07:16:56.202Z,4304.00
2019-04-05T07:17:56.191Z,4148.00
2019-04-05T07:18:56.188Z,4036.00
2019-04-05T07:19:56.181Z,3976.00
2019-04-05T07:20:57.862Z,4052.00
2019-04-05T07:21:56.169Z,4124.00
2019-04-05T07:22:56.154Z,4020.00
2019-04-05T07:23:56.155Z,4136.00
2019-04-05T07:24:56.145Z,4508.00
2019-04-05T07:25:56.140Z,4912.00
2019-04-05T07:26:56.133Z,4916.00
2019-04-05T07:27:56.126Z,4928.00
2019-04-05T07:28:56.120Z,4816.00
2019-04-05T07:29:56.317Z,4584.00
2019-04-05T07:30:56.109Z,4388.00
2019-04-05T07:31:56.096Z,4196.00
2019-04-05T07:32:56.092Z,4344.00
2019-04-05T07:33:56.457Z,4452.00
2019-04-05T07:34:56.081Z,4336.00
2019-04-05T07:35:56.084Z,4820.00
2019-04-05T07:36:56.075Z,5068.00
2019-04-05T07:37:56.062Z,5620.00
2019-04-05T07:38:56.054Z,6208.00
2019-04-05T07:39:56.046Z,5960.00
2019-04-05T07:40:56.046Z,5688.00
2019-04-05T07:41:56.035Z,6144.00
2019-04-05T07:42:56.028Z,7076.00
2019-04-05T07:43:56.022Z,7448.00
2019-04-05T07:44:56.018Z,7340.00
2019-04-05T07:45:56.081Z,7664.00
2019-04-05T07:46:56.009Z,7112.00
2019-04-05T07:47:56.001Z,6092.00
2019-04-05T07:48:55.990Z,5700.00
2019-04-05T07:49:55.997Z,5264.00
2019-04-05T07:50:55.982Z,4616.00
2019-04-05T07:51:55.979Z,4420.00
2019-04-05T07:52:55.970Z,6476.00
2019-04-05T07:53:55.964Z,7180.00
2019-04-05T07:54:55.957Z,6912.00
2019-04-05T07:55:55.950Z,7564.00
2019-04-05T07:56:55.943Z,8544.00
2019-04-05T07:57:55.937Z,9032.00
2019-04-05T07:58:55.933Z,9180.00
2019-04-05T07:59:55.922Z,9512.00
2019-04-05T08:00:55.920Z,8692.00
2019-04-05T08:01:55.912Z,8852.00
2019-04-05T08:02:55.910Z,9752.00
2019-04-05T08:03:58.068Z,10316.00
2019-04-05T08:04:55.894Z,10668.00
2019-04-05T08:05:55.888Z,10952.00
2019-04-05T08:06:55.882Z,10960.00
2019-04-05T08:07:55.885Z,10668.00
2019-04-05T08:08:55.878Z,11268.00
2019-04-05T08:09:55.874Z,11204.00
2019-04-05T08:10:55.862Z,11392.00
2019-04-05T08:11:55.859Z,10304.00
2019-04-05T08:12:55.856Z,10684.00
2019-04-05T08:13:55.856Z,10728.00
2019-04-05T08:14:55.849Z,9612.00
2019-04-05T08:15:55.837Z,9448.00
2019-04-05T08:16:55.836Z,9188.00
2019-04-05T08:17:55.826Z,9496.00
2019-04-05T08:18:58.070Z,8480.00
2019-04-05T08:19:55.828Z,7172.00
2019-04-05T08:20:55.810Z,6916.00
2019-04-05T08:21:55.810Z,7352.00
2019-04-05T08:22:55.808Z,7140.00
2019-04-05T08:23:55.794Z,6176.00
2019-04-05T08:24:55.790Z,5300.00
2019-04-05T08:25:55.792Z,5416.00
2019-04-05T08:26:55.783Z,5192.00
2019-04-05T08:27:55.779Z,4920.00
2019-04-05T08:28:55.771Z,5092.00
2019-04-05T08:29:55.765Z,4832.00
2019-04-05T08:30:55.757Z,6560.00
2019-04-05T08:31:55.752Z,6396.00
2019-04-05T08:32:55.745Z,6304.00
2019-04-05T08:33:55.742Z,6884.00
2019-04-05T08:34:55.737Z,6752.00
2019-04-05T08:35:55.729Z,8348.00
2019-04-05T08:36:55.729Z,10436.00
2019-04-05T08:37:55.723Z,12296.00
2019-04-05T08:38:55.718Z,14340.00
2019-04-05T08:39:55.707Z,17408.00
2019-04-05T08:40:55.702Z,19232.00
2019-04-05T08:41:55.696Z,20128.00
2019-04-05T08:43:55.688Z,19648.00
2019-04-05T08:44:55.685Z,18592.00
2019-04-05T08:45:55.680Z,19232.00
2019-04-05T08:46:55.677Z,19488.00
2019-04-05T08:47:55.670Z,16512.00
2019-04-05T08:48:55.667Z,11200.00
2019-04-05T08:49:55.663Z,7348.00
2019-04-05T08:50:55.663Z,6184.00
2019-04-05T08:51:55.656Z,5116.00
2019-04-05T08:52:55.648Z,4016.00
2019-04-05T08:53:55.650Z,3344.00
2019-04-05T08:54:55.642Z,3000.00
2019-04-05T08:55:55.640Z,2932.00
2019-04-05T08:56:55.631Z,3024.00
2019-04-05T08:57:55.628Z,3124.00
2019-04-05T08:58:55.620Z,3236.00
2019-04-05T08:59:55.616Z,3988.00
2019-04-05T09:00:55.615Z,5836.00
2019-04-05T09:01:55.605Z,6692.00
2019-04-05T09:02:55.732Z,6224.00
2019-04-05T09:03:55.603Z,6228.00
2019-04-05T09:04:55.588Z,6264.00
2019-04-05T09:05:55.585Z,6460.00
2019-04-05T09:06:55.581Z,7392.00
2019-04-05T09:07:55.571Z,7484.00
2019-04-05T09:08:55.573Z,7540.00
2019-04-05T09:09:55.564Z,7640.00
2019-04-05T09:10:55.557Z,8380.00
2019-04-05T09:11:55.554Z,10948.00
2019-04-05T09:12:55.557Z,12156.00
2019-04-05T09:13:55.540Z,10724.00
2019-04-05T09:14:55.543Z,8988.00
2019-04-05T09:15:55.532Z,8800.00
2019-04-05T09:16:55.526Z,8760.00
2019-04-05T09:17:55.523Z,8200.00
2019-04-05T09:18:55.519Z,8156.00
2019-04-05T09:19:55.512Z,10176.00
2019-04-05T09:20:55.509Z,11504.00
2019-04-05T09:21:55.508Z,13544.00
2019-04-05T09:22:55.501Z,15532.00
2019-04-05T09:23:55.490Z,16908.00
2019-04-05T09:24:55.492Z,16548.00
2019-04-05T09:25:55.485Z,14584.00
2019-04-05T09:26:55.480Z,13232.00
2019-04-05T09:27:55.472Z,12680.00
2019-04-05T09:28:55.473Z,12908.00
2019-04-05T09:29:55.465Z,11944.00
2019-04-05T09:30:55.466Z,10340.00
2019-04-05T09:31:55.455Z,10648.00
2019-04-05T09:32:55.450Z,12720.00
2019-04-05T09:33:55.448Z,12520.00
2019-04-05T09:34:55.445Z,10736.00
2019-04-05T09:35:55.442Z,10236.00
2019-04-05T09:36:55.448Z,11480.00
2019-04-05T09:37:55.436Z,11756.00
2019-04-05T09:38:55.425Z,10728.00
2019-04-05T09:39:55.425Z,9020.00
2019-04-05T09:40:55.421Z,6992.00
2019-04-05T09:41:55.417Z,5508.00
2019-04-05T09:42:55.412Z,5356.00
2019-04-05T09:43:55.405Z,5380.00
2019-04-05T09:44:55.405Z,5224.00
2019-04-05T09:45:55.393Z,4972.00
2019-04-05T09:46:55.395Z,4724.00
2019-04-05T09:47:55.387Z,4716.00
2019-04-05T09:48:55.385Z,4808.00
2019-04-05T09:49:55.377Z,4932.00
2019-04-05T09:50:55.372Z,5140.00
2019-04-05T09:51:55.368Z,5296.00
2019-04-05T09:52:55.367Z,5580.00
2019-04-05T09:53:55.356Z,5800.00
2019-04-05T09:54:55.349Z,6000.00
2019-04-05T09:55:55.350Z,6976.00
2019-04-05T09:56:56.782Z,8208.00
2019-04-05T09:57:55.356Z,8828.00
2019-04-05T09:58:55.329Z,8812.00
2019-04-05T09:59:55.330Z,7804.00
2019-04-05T10:00:55.319Z,7620.00
2019-04-05T10:01:55.332Z,9172.00
2019-04-05T10:02:55.313Z,9800.00
2019-04-05T10:03:55.314Z,9812.00
2019-04-05T10:04:55.305Z,8652.00
2019-04-05T10:05:55.298Z,7508.00
2019-04-05T10:06:55.293Z,6744.00
2019-04-05T10:07:55.938Z,6444.00
2019-04-05T10:08:55.284Z,7652.00
2019-04-05T10:09:55.280Z,10388.00
2019-04-05T10:10:55.274Z,10760.00
2019-04-05T10:11:55.270Z,9232.00
2019-04-05T10:12:55.264Z,8544.00
2019-04-05T10:13:55.255Z,8956.00
2019-04-05T10:14:55.254Z,8592.00
2019-04-05T10:15:55.244Z,7408.00
2019-04-05T10:16:55.243Z,6904.00
2019-04-05T10:17:55.241Z,7384.00
2019-04-05T10:18:55.232Z,8320.00
2019-04-05T10:19:55.230Z,8072.00
2019-04-05T10:20:55.227Z,7112.00
2019-04-05T10:21:55.220Z,6792.00
2019-04-05T10:22:55.209Z,6916.00
2019-04-05T10:23:55.210Z,7356.00
2019-04-05T10:24:55.206Z,7676.00
2019-04-05T10:25:55.199Z,7760.00
2019-04-05T10:26:55.196Z,7392.00
2019-04-05T10:27:55.187Z,6988.00
2019-04-05T10:28:55.183Z,6264.00
2019-04-05T10:29:55.181Z,5624.00
2019-04-05T10:30:55.168Z,5432.00
2019-04-05T10:31:55.170Z,5584.00
2019-04-05T10:32:55.161Z,5992.00
2019-04-05T10:33:55.155Z,6712.00
2019-04-05T10:34:55.168Z,7080.00
2019-04-05T10:35:55.155Z,7008.00
2019-04-05T10:36:55.140Z,6516.00
2019-04-05T10:37:58.188Z,6224.00
2019-04-05T10:38:55.130Z,6024.00
2019-04-05T10:39:55.127Z,6064.00
2019-04-05T10:40:55.116Z,6328.00
2019-04-05T10:42:03.416Z,6700.00
2019-04-05T10:42:55.110Z,7420.00
2019-04-05T10:43:55.109Z,8268.00
2019-04-05T10:44:55.104Z,9100.00
2019-04-05T10:45:55.092Z,9600.00
2019-04-05T10:46:55.093Z,9484.00
2019-04-05T10:47:55.087Z,8576.00
2019-04-05T10:48:55.083Z,7668.00
2019-04-05T10:50:03.011Z,7228.00
2019-04-05T10:50:55.066Z,7336.00
2019-04-05T10:51:55.067Z,7692.00
2019-04-05T10:52:55.063Z,8200.00
2019-04-05T10:53:55.113Z,8784.00
2019-04-05T10:54:57.794Z,9080.00
2019-04-05T10:55:55.052Z,9012.00
2019-04-05T10:56:55.043Z,8684.00
2019-04-05T10:57:55.038Z,8556.00
2019-04-05T10:58:55.033Z,8584.00
2019-04-05T10:59:55.022Z,8752.00
2019-04-05T11:00:55.019Z,9240.00
2019-04-05T11:01:55.014Z,9504.00
2019-04-05T11:02:55.008Z,10148.00
2019-04-05T11:03:55.015Z,10888.00
2019-04-05T11:04:55.003Z,11012.00
2019-04-05T11:05:55.020Z,10908.00
2019-04-05T11:06:54.989Z,10476.00
2019-04-05T11:07:54.987Z,9844.00
2019-04-05T11:08:54.980Z,9232.00
2019-04-05T11:09:54.973Z,8808.00
2019-04-05T11:10:54.970Z,8548.00
2019-04-05T11:11:54.970Z,8088.00
2019-04-05T11:12:54.960Z,7640.00
2019-04-05T11:13:54.954Z,7968.00
2019-04-05T11:14:54.954Z,8348.00
2019-04-05T11:15:54.949Z,7616.00
2019-04-05T11:16:58.794Z,6488.00
2019-04-05T11:17:54.934Z,6572.00
2019-04-05T11:18:54.941Z,6592.00
2019-04-05T11:19:54.931Z,6684.00
2019-04-05T11:20:54.928Z,7016.00
2019-04-05T11:21:54.916Z,7532.00
2019-04-05T11:22:54.915Z,8160.00
2019-04-05T11:23:55.785Z,8716.00
2019-04-05T11:24:54.905Z,9228.00
2019-04-05T11:25:54.903Z,9476.00
2019-04-05T11:26:54.895Z,8800.00
2019-04-05T11:27:54.886Z,8428.00
2019-04-05T11:28:54.882Z,8472.00
2019-04-05T11:29:57.691Z,8308.00
2019-04-05T11:30:54.876Z,8208.00
2019-04-05T11:31:57.303Z,8516.00
2019-04-05T11:32:54.869Z,8740.00
2019-04-05T11:33:54.862Z,8356.00
2019-04-05T11:34:54.856Z,7772.00
2019-04-05T11:35:57.753Z,7488.00
2019-04-05T11:36:54.843Z,7408.00
2019-04-05T11:37:54.843Z,7460.00
2019-04-05T11:38:54.836Z,7668.00
2019-04-05T11:39:54.838Z,7848.00
2019-04-05T11:40:54.827Z,7888.00
2019-04-05T11:41:54.881Z,7952.00
2019-04-05T11:42:54.818Z,8328.00
2019-04-05T11:43:54.814Z,8948.00
2019-04-05T11:44:54.808Z,9396.00
2019-04-05T11:45:54.802Z,8912.00
2019-04-05T11:46:54.800Z,8644.00
2019-04-05T11:47:55.718Z,8580.00
2019-04-05T11:48:54.789Z,8812.00
2019-04-05T11:49:55.267Z,8800.00
2019-04-05T11:50:54.778Z,8480.00
2019-04-05T11:51:54.778Z,8256.00
2019-04-05T11:52:54.771Z,8132.00
2019-04-05T11:53:54.767Z,7864.00
2019-04-05T11:54:54.764Z,7408.00
2019-04-05T11:55:54.763Z,7024.00
2019-04-05T11:56:54.749Z,6916.00
2019-04-05T11:57:55.019Z,7092.00
2019-04-05T11:58:54.746Z,7308.00
2019-04-05T11:59:54.735Z,7404.00
2019-04-05T12:00:54.733Z,7404.00
2019-04-05T12:01:54.730Z,7964.00
2019-04-05T12:02:54.742Z,9460.00
2019-04-05T12:03:54.792Z,10728.00
2019-04-05T12:04:54.715Z,11912.00
2019-04-05T12:05:54.708Z,12768.00
2019-04-05T12:08:00.463Z,12232.00
2019-04-05T12:08:54.697Z,10740.00
2019-04-05T12:09:54.691Z,9516.00
2019-04-05T12:10:54.687Z,8752.00
2019-04-05T12:11:54.685Z,8088.00
2019-04-05T12:12:54.682Z,7496.00
2019-04-05T12:13:54.677Z,7272.00
2019-04-05T12:14:54.668Z,7380.00
2019-04-05T12:15:54.661Z,7496.00
2019-04-05T12:16:54.664Z,7324.00
2019-04-05T12:17:54.654Z,7004.00
2019-04-05T12:18:54.654Z,6688.00
2019-04-05T12:19:54.648Z,6504.00
2019-04-05T12:20:59.958Z,6476.00
2019-04-05T12:21:54.641Z,6652.00
2019-04-05T12:22:54.633Z,6680.00
2019-04-05T12:23:54.624Z,6516.00
2019-04-05T12:24:54.619Z,6536.00
2019-04-05T12:25:54.901Z,6600.00
2019-04-05T12:26:54.611Z,6304.00
2019-04-05T12:28:05.712Z,5744.00
2019-04-05T12:28:54.605Z,5296.00
2019-04-05T12:29:54.601Z,5260.00
2019-04-05T12:30:54.593Z,5356.00
2019-04-05T12:31:54.591Z,5656.00
2019-04-05T12:32:54.584Z,6132.00
2019-04-05T12:33:54.579Z,6492.00
2019-04-05T12:34:54.570Z,6640.00
2019-04-05T12:35:56.635Z,6556.00
2019-04-05T12:36:54.566Z,6540.00
2019-04-05T12:37:55.800Z,6460.00
2019-04-05T12:38:54.564Z,6036.00
2019-04-05T12:39:54.551Z,5664.00
2019-04-05T12:40:54.550Z,5640.00